createdAt,value
2023-04-01T00:00:06.465Z,63.81
2023-04-01T00:01:06.436Z,60.10
2023-04-01T00:02:06.557Z,62.04
2023-04-01T00:03:06.518Z,62.68
2023-04-01T00:04:06.453Z,59.46
2023-04-01T00:05:06.389Z,62.84
2023-04-01T00:06:06.396Z,60.42
2023-04-01T00:07:06.365Z,61.23
2023-04-01T00:08:06.397Z,62.68
2023-04-01T00:09:06.337Z,62.04
2023-04-01T00:10:06.340Z,64.13
2023-04-01T00:11:06.332Z,63.00
2023-04-01T00:12:06.310Z,61.23
2023-04-01T00:13:06.292Z,61.07
2023-04-01T00:14:06.302Z,62.36
2023-04-01T00:15:06.273Z,59.30
2023-04-01T00:16:13.438Z,63.16
2023-04-01T00:17:08.308Z,62.68
2023-04-01T00:18:06.290Z,60.42
2023-04-01T00:19:06.286Z,59.46
2023-04-01T00:20:06.200Z,59.78
2023-04-01T00:21:06.202Z,61.71
2023-04-01T00:22:06.195Z,64.45
2023-04-01T00:23:06.180Z,60.75
2023-04-01T00:24:06.205Z,62.20
2023-04-01T00:25:06.151Z,59.94
2023-04-01T00:26:06.144Z,60.26
2023-04-01T00:27:06.126Z,61.87
2023-04-01T00:28:06.132Z,61.39
2023-04-01T00:29:06.099Z,62.20
2023-04-01T00:30:06.111Z,61.39
2023-04-01T00:31:06.131Z,60.75
2023-04-01T00:32:06.137Z,58.65
2023-04-01T00:33:06.166Z,58.97
2023-04-01T00:34:06.057Z,59.30
2023-04-01T00:35:06.053Z,61.07
2023-04-01T00:36:06.075Z,61.39
2023-04-01T00:37:06.008Z,57.85
2023-04-01T00:38:05.995Z,57.04
2023-04-01T00:39:06.007Z,58.33
2023-04-01T00:40:06.016Z,56.24
2023-04-01T00:41:05.963Z,60.75
2023-04-01T00:42:05.948Z,62.20
2023-04-01T00:43:05.942Z,60.42
2023-04-01T00:44:05.931Z,57.36
2023-04-01T00:45:06.952Z,61.07
2023-04-01T00:46:05.905Z,61.87
2023-04-01T00:47:05.995Z,59.94
2023-04-01T00:48:05.977Z,58.33
2023-04-01T00:49:05.872Z,59.14
2023-04-01T00:50:05.864Z,59.46
2023-04-01T00:51:05.866Z,59.94
2023-04-01T00:52:05.838Z,58.33
2023-04-01T00:53:05.827Z,61.39
2023-04-01T00:54:05.840Z,59.30
2023-04-01T00:55:05.819Z,62.52
2023-04-01T00:56:05.840Z,63.16
2023-04-01T00:57:05.828Z,59.46
2023-04-01T00:58:05.793Z,60.91
2023-04-01T00:59:05.750Z,58.33
2023-04-01T01:00:05.747Z,58.81
2023-04-01T01:01:05.811Z,60.75
2023-04-01T01:02:05.768Z,61.39
2023-04-01T01:03:05.762Z,63.65
2023-04-01T01:04:05.685Z,59.46
2023-04-01T01:05:05.683Z,62.20
2023-04-01T01:06:05.743Z,60.42
2023-04-01T01:07:05.658Z,60.26
2023-04-01T01:08:05.651Z,58.97
2023-04-01T01:09:05.641Z,58.97
2023-04-01T01:10:05.627Z,60.10
2023-04-01T01:11:05.621Z,58.97
2023-04-01T01:12:05.618Z,60.91
2023-04-01T01:13:05.593Z,59.94
2023-04-01T01:14:05.570Z,59.78
2023-04-01T01:15:05.574Z,56.72
2023-04-01T01:16:05.584Z,59.62
2023-04-01T01:17:05.572Z,61.71
2023-04-01T01:18:05.816Z,62.52
2023-04-01T01:19:05.519Z,61.07
2023-04-01T01:20:10.046Z,60.91
2023-04-01T01:21:06.496Z,61.07
2023-04-01T01:22:05.514Z,59.94
2023-04-01T01:23:05.479Z,57.20
2023-04-01T01:24:05.454Z,63.49
2023-04-01T01:25:05.456Z,62.52
2023-04-01T01:26:05.435Z,61.87
2023-04-01T01:27:05.566Z,64.94
2023-04-01T01:28:05.427Z,60.91
2023-04-01T01:29:05.395Z,64.13
2023-04-01T01:30:05.388Z,61.39
2023-04-01T01:31:05.473Z,61.71
2023-04-01T01:32:05.360Z,58.01
2023-04-01T01:33:05.445Z,57.69
2023-04-01T01:34:05.356Z,61.55
2023-04-01T01:35:05.334Z,59.94
2023-04-01T01:36:05.349Z,58.97
2023-04-01T01:37:05.304Z,63.33
2023-04-01T01:38:05.330Z,58.01
2023-04-01T01:39:05.275Z,63.16
2023-04-01T01:40:05.279Z,61.55
2023-04-01T01:41:05.251Z,60.91
2023-04-01T01:42:05.238Z,60.26
2023-04-01T01:43:05.245Z,60.59
2023-04-01T01:44:05.235Z,61.23
2023-04-01T01:45:05.203Z,61.87
2023-04-01T01:46:05.234Z,62.36
2023-04-01T01:47:05.180Z,62.36
2023-04-01T01:48:05.247Z,60.42
2023-04-01T01:49:05.210Z,60.75
2023-04-01T01:50:05.169Z,59.46
2023-04-01T01:51:05.136Z,59.78
2023-04-01T01:52:05.148Z,64.61
2023-04-01T01:53:05.126Z,57.85
2023-04-01T01:54:05.123Z,58.81
2023-04-01T01:55:05.097Z,61.71
2023-04-01T01:56:05.073Z,58.49
2023-04-01T01:57:05.090Z,61.07
2023-04-01T01:58:05.064Z,58.65
2023-04-01T01:59:05.101Z,58.97
2023-04-01T02:00:05.040Z,59.30
2023-04-01T02:01:05.070Z,59.62
2023-04-01T02:02:05.014Z,62.20
2023-04-01T02:03:05.012Z,61.07
2023-04-01T02:04:05.030Z,60.91
2023-04-01T02:05:05.016Z,54.95
2023-04-01T02:06:04.986Z,61.71
2023-04-01T02:07:04.953Z,60.42
2023-04-01T02:08:04.934Z,60.26
2023-04-01T02:09:04.924Z,60.91
2023-04-01T02:10:04.934Z,59.14
2023-04-01T02:11:04.892Z,55.43
2023-04-01T02:12:04.902Z,61.23
2023-04-01T02:13:05.391Z,59.94
2023-04-01T02:14:04.868Z,58.65
2023-04-01T02:15:04.860Z,62.04
2023-04-01T02:16:04.908Z,59.78
2023-04-01T02:17:04.857Z,57.85
2023-04-01T02:18:04.876Z,61.55
2023-04-01T02:19:04.817Z,60.91
2023-04-01T02:20:04.782Z,59.46
2023-04-01T02:21:04.829Z,60.42
2023-04-01T02:22:05.206Z,60.91
2023-04-01T02:23:04.757Z,60.91
2023-04-01T02:24:04.797Z,60.59
2023-04-01T02:25:04.739Z,61.39
2023-04-01T02:26:04.763Z,61.23
2023-04-01T02:27:04.717Z,62.68
2023-04-01T02:28:04.705Z,59.46
2023-04-01T02:29:04.720Z,59.62
2023-04-01T02:30:04.678Z,61.55
2023-04-01T02:31:04.728Z,59.30
2023-04-01T02:32:04.682Z,61.07
2023-04-01T02:33:04.711Z,62.84
2023-04-01T02:34:04.653Z,60.42
2023-04-01T02:35:04.649Z,61.87
2023-04-01T02:36:04.621Z,58.81
2023-04-01T02:37:04.656Z,58.17
2023-04-01T02:38:04.590Z,62.36
2023-04-01T02:39:04.563Z,58.17
2023-04-01T02:40:04.561Z,59.30
2023-04-01T02:41:04.545Z,62.52
2023-04-01T02:42:04.572Z,60.26
2023-04-01T02:43:04.525Z,59.78
2023-04-01T02:44:04.527Z,64.13
2023-04-01T02:45:04.509Z,60.75
2023-04-01T02:46:04.606Z,60.75
2023-04-01T02:47:04.791Z,60.91
2023-04-01T02:48:04.516Z,61.71
2023-04-01T02:49:11.815Z,62.36
2023-04-01T02:50:05.484Z,61.71
2023-04-01T02:51:04.457Z,60.75
2023-04-01T02:52:04.423Z,58.49
2023-04-01T02:53:04.464Z,58.81
2023-04-01T02:54:04.409Z,59.78
2023-04-01T02:55:04.434Z,60.26
2023-04-01T02:56:04.376Z,60.91
2023-04-01T02:57:04.420Z,62.52
2023-04-01T02:58:04.398Z,62.52
2023-04-01T02:59:04.352Z,63.00
2023-04-01T03:00:04.336Z,56.72
2023-04-01T03:01:04.371Z,63.49
2023-04-01T03:02:04.350Z,63.00
2023-04-01T03:03:04.353Z,62.36
2023-04-01T03:04:04.316Z,59.46
2023-04-01T03:05:04.278Z,59.14
2023-04-01T03:06:04.283Z,61.71
2023-04-01T03:07:04.282Z,62.84
2023-04-01T03:08:04.274Z,60.75
2023-04-01T03:09:04.257Z,59.30
2023-04-01T03:10:04.275Z,59.94
2023-04-01T03:11:04.224Z,59.94
2023-04-01T03:12:04.187Z,63.49
2023-04-01T03:13:04.202Z,63.33
2023-04-01T03:14:04.198Z,63.49
2023-04-01T03:15:10.929Z,58.81
2023-04-01T03:16:05.202Z,59.94
2023-04-01T03:17:04.928Z,62.20
2023-04-01T03:18:04.236Z,60.91
2023-04-01T03:19:04.175Z,60.59
2023-04-01T03:20:04.098Z,61.87
2023-04-01T03:21:04.087Z,57.36
2023-04-01T03:22:04.089Z,58.65
2023-04-01T03:23:04.055Z,61.23
2023-04-01T03:24:05.110Z,61.87
2023-04-01T03:25:04.053Z,62.36
2023-04-01T03:26:04.033Z,61.23
2023-04-01T03:27:04.011Z,64.94
2023-04-01T03:28:04.022Z,61.23
2023-04-01T03:29:04.015Z,63.49
2023-04-01T03:30:04.052Z,60.91
2023-04-01T03:31:04.006Z,64.61
2023-04-01T03:32:03.958Z,59.46
2023-04-01T03:33:04.009Z,63.16
2023-04-01T03:34:03.939Z,62.52
2023-04-01T03:35:03.969Z,62.68
2023-04-01T03:36:03.957Z,62.68
2023-04-01T03:37:03.912Z,61.71
2023-04-01T03:38:03.893Z,63.65
2023-04-01T03:39:03.883Z,63.49
2023-04-01T03:40:03.867Z,63.00
2023-04-01T03:41:03.904Z,62.84
2023-04-01T03:42:03.875Z,62.04
2023-04-01T03:43:03.886Z,63.16
2023-04-01T03:44:03.826Z,63.00
2023-04-01T03:45:03.831Z,63.49
2023-04-01T03:46:03.861Z,59.62
2023-04-01T03:47:03.794Z,60.10
2023-04-01T03:48:03.822Z,62.68
2023-04-01T03:49:03.776Z,61.39
2023-04-01T03:50:03.769Z,62.36
2023-04-01T03:51:03.848Z,63.49
2023-04-01T03:52:03.744Z,61.87
2023-04-01T03:53:03.720Z,60.91
2023-04-01T03:54:03.728Z,61.39
2023-04-01T03:55:03.706Z,63.97
2023-04-01T03:56:03.751Z,64.13
2023-04-01T03:57:03.737Z,64.13
2023-04-01T03:58:03.671Z,63.00
2023-04-01T03:59:03.669Z,63.65
2023-04-01T04:00:03.658Z,62.04
2023-04-01T04:01:03.644Z,62.68
2023-04-01T04:02:03.644Z,63.33
2023-04-01T04:03:03.729Z,63.16
2023-04-01T04:04:03.634Z,62.84
2023-04-01T04:05:03.595Z,62.04
2023-04-01T04:06:03.574Z,59.62
2023-04-01T04:07:03.628Z,60.75
2023-04-01T04:08:03.556Z,63.16
2023-04-01T04:09:03.556Z,62.68
2023-04-01T04:10:03.531Z,61.87
2023-04-01T04:11:03.519Z,65.10
2023-04-01T04:12:03.553Z,60.59
2023-04-01T04:13:03.517Z,60.75
2023-04-01T04:14:03.499Z,61.87
2023-04-01T04:15:03.506Z,61.39
2023-04-01T04:16:03.522Z,63.16
2023-04-01T04:17:03.453Z,63.16
2023-04-01T04:18:03.518Z,58.17
2023-04-01T04:19:03.432Z,64.13
2023-04-01T04:20:03.425Z,63.65
2023-04-01T04:21:03.414Z,64.13
2023-04-01T04:22:03.398Z,63.00
2023-04-01T04:23:03.413Z,61.39
2023-04-01T04:24:03.388Z,63.81
2023-04-01T04:25:03.360Z,62.84
2023-04-01T04:26:03.356Z,62.04
2023-04-01T04:27:03.477Z,63.65
2023-04-01T04:28:03.393Z,62.36
2023-04-01T04:29:03.328Z,62.84
2023-04-01T04:30:03.324Z,65.42
2023-04-01T04:31:03.301Z,64.61
2023-04-01T04:32:03.336Z,62.52
2023-04-01T04:33:03.340Z,64.13
2023-04-01T04:34:03.296Z,63.49
2023-04-01T04:35:03.258Z,64.45
2023-04-01T04:36:03.272Z,65.58
2023-04-01T04:37:03.231Z,63.33
2023-04-01T04:38:03.225Z,65.26
2023-04-01T04:39:03.285Z,64.45
2023-04-01T04:40:03.190Z,63.33
2023-04-01T04:41:03.209Z,62.20
2023-04-01T04:42:03.175Z,62.84
2023-04-01T04:43:03.154Z,64.13
2023-04-01T04:44:03.206Z,64.29
2023-04-01T04:45:03.141Z,66.39
2023-04-01T04:46:03.123Z,64.61
2023-04-01T04:47:03.200Z,66.71
2023-04-01T04:48:03.136Z,65.10
2023-04-01T04:49:03.096Z,62.36
2023-04-01T04:50:03.122Z,64.29
2023-04-01T04:51:03.069Z,63.49
2023-04-01T04:52:03.055Z,64.29
2023-04-01T04:53:03.052Z,63.33
2023-04-01T04:54:03.032Z,63.97
2023-04-01T04:55:03.061Z,64.94
2023-04-01T04:56:03.020Z,62.20
2023-04-01T04:57:03.038Z,64.29
2023-04-01T04:58:02.987Z,62.20
2023-04-01T04:59:02.990Z,64.13
2023-04-01T05:00:02.964Z,61.87
2023-04-01T05:01:03.004Z,64.13
2023-04-01T05:02:03.046Z,64.45
2023-04-01T05:03:03.016Z,61.07
2023-04-01T05:04:02.921Z,64.29
2023-04-01T05:05:02.905Z,63.65
2023-04-01T05:06:02.941Z,64.61
2023-04-01T05:07:03.221Z,63.65
2023-04-01T05:08:02.891Z,65.26
2023-04-01T05:09:02.873Z,64.61
2023-04-01T05:10:02.862Z,64.29
2023-04-01T05:11:02.837Z,66.06
2023-04-01T05:12:02.853Z,64.94
2023-04-01T05:13:02.817Z,63.33
2023-04-01T05:14:02.822Z,63.97
2023-04-01T05:15:02.788Z,65.10
2023-04-01T05:16:03.033Z,65.42
2023-04-01T05:17:02.849Z,64.78
2023-04-01T05:18:02.796Z,67.19
2023-04-01T05:19:02.749Z,66.55
2023-04-01T05:20:02.739Z,64.78
2023-04-01T05:21:02.719Z,62.20
2023-04-01T05:22:02.739Z,63.97
2023-04-01T05:23:02.719Z,64.94
2023-04-01T05:24:02.718Z,66.39
2023-04-01T05:25:02.709Z,65.90
2023-04-01T05:26:02.689Z,63.97
2023-04-01T05:27:02.655Z,63.65
2023-04-01T05:28:02.664Z,65.90
2023-04-01T05:29:02.762Z,65.10
2023-04-01T05:30:02.637Z,65.90
2023-04-01T05:31:02.610Z,65.10
2023-04-01T05:32:02.599Z,66.23
2023-04-01T05:33:02.657Z,65.42
2023-04-01T05:34:02.578Z,63.97
2023-04-01T05:35:02.551Z,66.39
2023-04-01T05:36:02.552Z,65.26
2023-04-01T05:37:02.539Z,65.42
2023-04-01T05:38:02.523Z,66.23
2023-04-01T05:39:02.528Z,63.16
2023-04-01T05:40:02.496Z,66.23
2023-04-01T05:41:02.482Z,66.06
2023-04-01T05:42:02.464Z,66.39
2023-04-01T05:43:03.611Z,66.06
2023-04-01T05:44:02.472Z,67.51
2023-04-01T05:45:02.434Z,65.90
2023-04-01T05:46:02.470Z,68.16
2023-04-01T05:47:02.405Z,63.33
2023-04-01T05:48:02.474Z,64.13
2023-04-01T05:49:02.457Z,64.61
2023-04-01T05:50:02.374Z,63.33
2023-04-01T05:51:02.373Z,67.03
2023-04-01T05:52:02.363Z,63.81
2023-04-01T05:53:02.350Z,66.23
2023-04-01T05:54:02.389Z,65.74
2023-04-01T05:55:02.320Z,63.81
2023-04-01T05:56:02.301Z,64.13
2023-04-01T05:57:02.325Z,65.26
2023-04-01T05:58:02.283Z,63.00
2023-04-01T05:59:02.288Z,63.65
2023-04-01T06:00:02.272Z,64.78
2023-04-01T06:01:09.279Z,63.97
2023-04-01T06:02:03.994Z,63.65
2023-04-01T06:03:02.284Z,66.39
2023-04-01T06:04:02.369Z,66.87
2023-04-01T06:05:02.265Z,66.55
2023-04-01T06:06:02.232Z,65.74
2023-04-01T06:07:02.187Z,64.13
2023-04-01T06:08:02.194Z,66.71
2023-04-01T06:09:02.163Z,63.16
2023-04-01T06:10:02.196Z,64.61
2023-04-01T06:11:03.140Z,66.55
2023-04-01T06:12:02.140Z,65.26
2023-04-01T06:13:02.131Z,65.26
2023-04-01T06:14:02.126Z,62.36
2023-04-01T06:15:02.109Z,63.97
2023-04-01T06:16:02.134Z,63.49
2023-04-01T06:17:02.066Z,65.42
2023-04-01T06:18:02.099Z,66.39
2023-04-01T06:19:02.058Z,67.35
2023-04-01T06:20:02.047Z,66.55
2023-04-01T06:21:02.079Z,65.74
2023-04-01T06:22:02.149Z,64.78
2023-04-01T06:23:02.016Z,67.19
2023-04-01T06:24:01.983Z,66.23
2023-04-01T06:25:01.992Z,64.29
2023-04-01T06:26:01.981Z,64.94
2023-04-01T06:27:02.007Z,64.61
2023-04-01T06:28:01.954Z,68.00
2023-04-01T06:29:01.954Z,65.90
2023-04-01T06:30:01.925Z,65.90
2023-04-01T06:31:01.906Z,63.81
2023-04-01T06:32:01.966Z,64.45
2023-04-01T06:33:02.055Z,64.78
2023-04-01T06:34:01.879Z,65.10
2023-04-01T06:35:01.886Z,63.81
2023-04-01T06:36:01.887Z,64.78
2023-04-01T06:37:01.859Z,64.13
2023-04-01T06:38:01.871Z,63.65
2023-04-01T06:39:01.810Z,67.19
2023-04-01T06:40:01.817Z,64.29
2023-04-01T06:41:01.803Z,63.33
2023-04-01T06:42:01.798Z,64.78
2023-04-01T06:43:01.822Z,65.58
2023-04-01T06:44:01.769Z,65.58
2023-04-01T06:45:01.762Z,64.61
2023-04-01T06:46:01.814Z,62.20
2023-04-01T06:47:01.823Z,63.33
2023-04-01T06:48:01.778Z,66.39
2023-04-01T06:49:01.723Z,64.94
2023-04-01T06:50:01.715Z,64.94
2023-04-01T06:51:01.695Z,65.58
2023-04-01T06:52:01.699Z,65.26
2023-04-01T06:53:01.669Z,64.61
2023-04-01T06:54:01.693Z,66.71
2023-04-01T06:55:01.657Z,65.90
2023-04-01T06:56:01.629Z,65.26
2023-04-01T06:57:01.641Z,63.00
2023-04-01T06:58:01.615Z,63.00
2023-04-01T06:59:01.620Z,65.10
2023-04-01T07:00:01.656Z,65.90
2023-04-01T07:01:01.590Z,65.90
2023-04-01T07:02:01.571Z,67.19
2023-04-01T07:03:01.598Z,66.06
2023-04-01T07:04:01.589Z,66.55
2023-04-01T07:05:01.528Z,65.26
2023-04-01T07:06:01.709Z,67.19
2023-04-01T07:07:01.505Z,66.71
2023-04-01T07:08:01.494Z,65.42
2023-04-01T07:09:03.505Z,66.39
2023-04-01T07:10:01.469Z,64.45
2023-04-01T07:11:01.461Z,65.58
2023-04-01T07:12:01.483Z,67.68
2023-04-01T07:13:01.435Z,65.10
2023-04-01T07:14:01.447Z,61.23
2023-04-01T07:15:01.431Z,63.97
2023-04-01T07:16:01.409Z,64.45
2023-04-01T07:17:01.412Z,65.26
2023-04-01T07:18:01.425Z,65.10
2023-04-01T07:19:01.384Z,65.42
2023-04-01T07:20:01.435Z,66.39
2023-04-01T07:21:01.354Z,67.35
2023-04-01T07:25:29.862Z,64.13
2023-04-01T07:26:29.774Z,63.65
2023-04-01T07:27:29.790Z,64.29
2023-04-01T07:28:29.664Z,67.03
2023-04-01T07:29:29.954Z,64.13
2023-04-01T07:30:29.614Z,64.45
2023-04-01T07:31:29.625Z,64.45
2023-04-01T07:32:29.563Z,67.03
2023-04-01T07:33:29.531Z,66.23
2023-04-01T07:34:29.592Z,65.58
2023-04-01T07:35:29.509Z,65.10
2023-04-01T07:36:29.546Z,68.00
2023-04-01T07:37:29.498Z,65.90
2023-04-01T07:38:29.575Z,65.26
2023-04-01T07:39:29.478Z,65.42
2023-04-01T07:40:29.470Z,66.71
2023-04-01T07:41:29.461Z,63.49
2023-04-01T07:42:29.496Z,66.55
2023-04-01T07:43:29.431Z,64.61
2023-04-01T07:44:29.461Z,64.45
2023-04-01T07:45:29.413Z,65.74
2023-04-01T07:46:29.478Z,63.65
2023-04-01T07:47:29.407Z,66.87
2023-04-01T07:48:29.401Z,62.20
2023-04-01T07:49:29.418Z,63.00
2023-04-01T07:50:29.416Z,65.58
2023-04-01T07:51:29.400Z,64.94
2023-04-01T07:52:29.343Z,64.29
2023-04-01T07:53:29.321Z,65.10
2023-04-01T07:54:29.322Z,63.16
2023-04-01T07:55:29.307Z,66.87
2023-04-01T07:56:29.290Z,63.81
2023-04-01T07:57:29.312Z,63.33
2023-04-01T07:58:29.310Z,65.58
2023-04-01T07:59:29.234Z,65.90
2023-04-01T08:00:29.257Z,66.55
2023-04-01T08:01:29.230Z,65.90
2023-04-01T08:02:29.227Z,65.58
2023-04-01T08:03:29.451Z,63.97
2023-04-01T08:04:29.202Z,64.13
2023-04-01T08:05:29.234Z,65.90
2023-04-01T08:06:29.197Z,67.03
2023-04-01T08:07:29.170Z,64.94
2023-04-01T08:08:29.144Z,65.42
2023-04-01T08:09:29.167Z,65.42
2023-04-01T08:10:29.136Z,66.71
2023-04-01T08:11:29.093Z,63.33
2023-04-01T08:12:29.068Z,63.33
2023-04-01T08:13:29.099Z,65.10
2023-04-01T08:14:29.125Z,63.81
2023-04-01T08:15:29.043Z,63.49
2023-04-01T08:16:29.047Z,65.58
2023-04-01T08:17:29.045Z,65.58
2023-04-01T08:18:29.050Z,65.42
2023-04-01T08:19:28.989Z,64.13
2023-04-01T08:20:29.041Z,64.45
2023-04-01T08:21:28.979Z,65.90
2023-04-01T08:22:29.007Z,64.61
2023-04-01T08:23:28.949Z,64.61
2023-04-01T08:24:37.120Z,64.78
2023-04-01T08:25:28.948Z,65.26
2023-04-01T08:26:28.954Z,64.61
2023-04-01T08:27:28.915Z,63.97
2023-04-01T08:28:28.892Z,64.78
2023-04-01T08:29:28.856Z,65.58
2023-04-01T08:30:29.098Z,65.90
2023-04-01T08:31:28.860Z,65.74
2023-04-01T08:32:28.852Z,65.10
2023-04-01T08:33:28.801Z,63.97
2023-04-01T08:34:28.799Z,65.74
2023-04-01T08:35:30.411Z,64.13
2023-04-01T08:36:28.902Z,64.13
2023-04-01T08:37:28.805Z,65.58
2023-04-01T08:38:28.747Z,64.94
2023-04-01T08:39:28.749Z,64.45
2023-04-01T08:40:28.749Z,66.87
2023-04-01T08:41:28.769Z,64.13
2023-04-01T08:42:28.682Z,65.10
2023-04-01T08:43:28.693Z,64.13
2023-04-01T08:44:28.715Z,63.97
2023-04-01T08:45:28.701Z,65.26
2023-04-01T08:46:28.835Z,64.61
2023-04-01T08:47:28.651Z,64.78
2023-04-01T08:48:28.629Z,64.78
2023-04-01T08:49:28.637Z,64.94
2023-04-01T08:50:28.591Z,62.04
2023-04-01T08:51:28.600Z,65.90
2023-04-01T08:52:28.626Z,66.06
2023-04-01T08:53:28.588Z,63.00
2023-04-01T08:54:28.531Z,61.87
2023-04-01T08:55:28.539Z,65.26
2023-04-01T08:56:28.536Z,63.16
2023-04-01T08:57:28.628Z,65.42
2023-04-01T08:58:28.483Z,65.74
2023-04-01T08:59:28.508Z,64.78
2023-04-01T09:00:28.486Z,66.06
2023-04-01T09:01:28.501Z,65.90
2023-04-01T09:02:28.645Z,65.10
2023-04-01T09:03:28.589Z,64.78
2023-04-01T09:04:28.531Z,63.97
2023-04-01T09:05:28.452Z,63.49
2023-04-01T09:06:28.407Z,63.97
2023-04-01T09:07:28.397Z,64.61
2023-04-01T09:08:28.394Z,65.26
2023-04-01T09:09:28.447Z,66.71
2023-04-01T09:10:28.360Z,66.39
2023-04-01T09:11:28.439Z,65.90
2023-04-01T09:12:28.331Z,65.26
2023-04-01T09:13:28.298Z,66.55
2023-04-01T09:14:28.315Z,63.16
2023-04-01T09:15:28.355Z,62.68
2023-04-01T09:16:28.419Z,65.74
2023-04-01T09:17:28.361Z,65.74
2023-04-01T09:18:28.248Z,65.42
2023-04-01T09:19:28.247Z,63.00
2023-04-01T09:20:28.338Z,65.10
2023-04-01T09:21:28.217Z,64.61
2023-04-01T09:22:28.209Z,63.65
2023-04-01T09:23:28.218Z,68.48
2023-04-01T09:24:28.170Z,65.90
2023-04-01T09:25:30.215Z,66.39
2023-04-01T09:26:29.388Z,66.06
2023-04-01T09:27:29.347Z,65.10
2023-04-01T09:28:29.365Z,65.10
2023-04-01T09:29:29.312Z,63.65
2023-04-01T09:30:29.342Z,65.90
2023-04-01T09:31:29.396Z,65.10
2023-04-01T09:32:29.390Z,64.78
2023-04-01T09:33:29.246Z,67.19
2023-04-01T09:34:29.289Z,66.87
2023-04-01T09:35:29.240Z,66.23
2023-04-01T09:36:29.263Z,66.39
2023-04-01T09:37:29.282Z,65.26
2023-04-01T09:38:29.253Z,64.13
2023-04-01T09:39:29.268Z,63.00
2023-04-01T09:40:29.135Z,64.13
2023-04-01T09:41:29.143Z,64.45
2023-04-01T09:42:29.125Z,63.65
2023-04-01T09:43:29.176Z,63.65
2023-04-01T09:44:29.101Z,65.58
2023-04-01T09:45:29.134Z,66.55
2023-04-01T09:46:29.137Z,64.45
2023-04-01T09:47:29.202Z,63.65
2023-04-01T09:48:29.060Z,65.74
2023-04-01T09:49:29.006Z,64.78
2023-04-01T09:50:29.009Z,65.26
2023-04-01T09:51:29.011Z,65.74
2023-04-01T09:52:28.949Z,63.65
2023-04-01T09:53:29.028Z,63.97
2023-04-01T09:54:28.959Z,66.23
2023-04-01T09:55:28.984Z,65.26
2023-04-01T09:56:28.958Z,66.71
2023-04-01T09:57:29.027Z,65.58
2023-04-01T09:58:29.044Z,64.61
2023-04-01T09:59:28.952Z,65.26
2023-04-01T10:00:28.896Z,67.19
2023-04-01T10:01:28.972Z,65.90
2023-04-01T10:02:28.895Z,63.65
2023-04-01T10:03:29.794Z,67.03
2023-04-01T10:04:28.908Z,65.10
2023-04-01T10:05:28.936Z,65.26
2023-04-01T10:06:28.871Z,66.06
2023-04-01T10:07:28.881Z,65.58
2023-04-01T10:08:28.852Z,65.10
2023-04-01T10:09:28.878Z,63.16
2023-04-01T10:10:28.804Z,63.81
2023-04-01T10:11:28.808Z,65.90
2023-04-01T10:12:28.755Z,66.87
2023-04-01T10:13:28.791Z,65.90
2023-04-01T10:14:28.768Z,63.49
2023-04-01T10:15:28.777Z,64.78
2023-04-01T10:16:28.840Z,66.06
2023-04-01T10:17:28.744Z,64.61
2023-04-01T10:18:28.742Z,65.90
2023-04-01T10:19:28.728Z,64.13
2023-04-01T10:20:29.600Z,66.71
2023-04-01T10:21:28.743Z,63.33
2023-04-01T10:22:28.663Z,65.74
2023-04-01T10:23:28.585Z,65.10
2023-04-01T10:24:28.621Z,65.26
2023-04-01T10:25:28.632Z,65.74
2023-04-01T10:26:28.607Z,65.90
2023-04-01T10:27:28.543Z,64.94
2023-04-01T10:28:28.574Z,64.29
2023-04-01T10:29:28.540Z,65.42
2023-04-01T10:30:28.524Z,65.58
2023-04-01T10:31:28.644Z,64.94
2023-04-01T10:32:28.534Z,64.29
2023-04-01T10:33:28.493Z,63.00
2023-04-01T10:34:28.458Z,65.58
2023-04-01T10:35:28.499Z,65.58
2023-04-01T10:36:28.501Z,64.13
2023-04-01T10:37:28.408Z,65.26
2023-04-01T10:38:28.546Z,65.74
2023-04-01T10:39:28.414Z,64.78
2023-04-01T10:40:28.504Z,65.58
2023-04-01T10:41:28.369Z,64.78
2023-04-01T10:42:28.395Z,64.61
2023-04-01T10:43:28.399Z,65.42
2023-04-01T10:44:28.422Z,64.45
2023-04-01T10:45:28.371Z,63.65
2023-04-01T10:46:28.597Z,64.78
2023-04-01T10:47:28.326Z,66.06
2023-04-01T10:48:28.300Z,65.42
2023-04-01T10:49:28.311Z,63.16
2023-04-01T10:50:28.256Z,66.39
2023-04-01T10:51:28.246Z,65.90
2023-04-01T10:52:28.275Z,65.58
2023-04-01T10:53:28.286Z,63.81
2023-04-01T10:54:28.206Z,65.42
2023-04-01T10:55:28.193Z,63.16
2023-04-01T10:56:28.175Z,64.29
2023-04-01T10:57:28.280Z,62.36
2023-04-01T10:58:28.212Z,64.13
2023-04-01T10:59:28.160Z,63.65
2023-04-01T11:00:28.146Z,65.42
2023-04-01T11:01:28.222Z,62.52
2023-04-01T11:02:28.200Z,63.97
2023-04-01T11:03:28.176Z,67.03
2023-04-01T11:04:28.128Z,65.90
2023-04-01T11:05:28.075Z,65.58
2023-04-01T11:06:28.071Z,65.10
2023-04-01T11:07:28.057Z,66.39
2023-04-01T11:08:28.036Z,64.94
2023-04-01T11:09:28.068Z,64.45
2023-04-01T11:10:28.045Z,64.61
2023-04-01T11:11:28.031Z,63.65
2023-04-01T11:12:28.002Z,63.81
2023-04-01T11:13:27.992Z,63.97
2023-04-01T11:14:28.004Z,64.61
2023-04-01T11:15:28.118Z,63.00
2023-04-01T11:16:28.005Z,65.10
2023-04-01T11:17:27.990Z,64.61
2023-04-01T11:18:27.944Z,64.61
2023-04-01T11:19:27.960Z,63.97
2023-04-01T11:20:27.905Z,65.58
2023-04-01T11:21:27.929Z,65.58
2023-04-01T11:22:27.889Z,66.39
2023-04-01T11:23:27.881Z,65.42
2023-04-01T11:24:27.938Z,66.87
2023-04-01T11:25:27.893Z,63.65
2023-04-01T11:26:27.829Z,62.84
2023-04-01T11:27:27.822Z,64.13
2023-04-01T11:28:27.831Z,66.71
2023-04-01T11:29:27.789Z,65.26
2023-04-01T11:30:27.823Z,65.58
2023-04-01T11:31:27.803Z,64.13
2023-04-01T11:32:27.786Z,65.26
2023-04-01T11:33:27.751Z,62.68
2023-04-01T11:34:27.741Z,64.45
2023-04-01T11:35:27.715Z,63.65
2023-04-01T11:36:27.773Z,65.42
2023-04-01T11:37:27.714Z,64.94
2023-04-01T11:38:27.680Z,64.45
2023-04-01T11:39:27.676Z,65.90
2023-04-01T11:40:27.667Z,62.20
2023-04-01T11:41:27.671Z,65.10
2023-04-01T11:42:27.643Z,63.00
2023-04-01T11:43:33.547Z,63.81
2023-04-01T11:44:28.618Z,64.61
2023-04-01T11:45:27.609Z,64.61
2023-04-01T11:46:27.645Z,63.97
2023-04-01T11:47:27.674Z,63.81
2023-04-01T11:48:27.561Z,65.26
2023-04-01T11:49:27.564Z,65.42
2023-04-01T11:50:27.591Z,65.10
2023-04-01T11:51:27.526Z,64.13
2023-04-01T11:55:56.582Z,65.26
2023-04-01T11:56:56.488Z,66.71
2023-04-01T11:57:56.427Z,65.58
2023-04-01T11:58:56.363Z,64.61
2023-04-01T11:59:56.396Z,65.26
2023-04-01T12:00:56.333Z,64.61
2023-04-01T12:01:56.356Z,66.06
2023-04-01T12:02:56.408Z,65.74
2023-04-01T12:03:56.467Z,64.29
2023-04-01T12:04:56.300Z,67.35
2023-04-01T12:05:56.298Z,66.39
2023-04-01T12:06:56.274Z,64.29
2023-04-01T12:07:56.249Z,63.16
2023-04-01T12:08:56.237Z,64.13
2023-04-01T12:09:56.228Z,65.26
2023-04-01T12:10:56.233Z,63.33
2023-04-01T12:11:56.208Z,63.97
2023-04-01T12:13:01.258Z,62.68
2023-04-01T12:13:56.190Z,63.00
2023-04-01T12:14:56.165Z,64.29
2023-04-01T12:15:56.213Z,64.29
2023-04-01T12:16:56.144Z,63.65
2023-04-01T12:17:56.133Z,62.84
2023-04-01T12:18:56.128Z,63.81
2023-04-01T12:19:56.106Z,65.42
2023-04-01T12:20:56.095Z,65.10
2023-04-01T12:21:56.090Z,65.74
2023-04-01T12:22:56.085Z,64.13
2023-04-01T12:23:56.054Z,63.33
2023-04-01T12:24:56.055Z,61.87
2023-04-01T12:25:56.062Z,63.81
2023-04-01T12:26:56.113Z,63.65
2023-04-01T12:27:56.005Z,64.94
2023-04-01T12:28:55.992Z,63.49
2023-04-01T12:29:55.992Z,63.33
2023-04-01T12:30:56.158Z,64.13
2023-04-01T12:31:56.062Z,63.33
2023-04-01T12:32:55.991Z,64.45
2023-04-01T12:33:56.017Z,62.84
2023-04-01T12:34:55.922Z,63.33
2023-04-01T12:35:55.947Z,63.33
2023-04-01T12:36:55.897Z,64.61
2023-04-01T12:37:55.918Z,63.97
2023-04-01T12:38:55.870Z,64.61
2023-04-01T12:39:55.856Z,64.45
2023-04-01T12:40:55.850Z,64.13
2023-04-01T12:41:55.836Z,64.61
2023-04-01T12:42:57.082Z,64.78
2023-04-01T12:43:56.924Z,63.33
2023-04-01T12:44:57.922Z,64.78
2023-04-01T12:45:56.939Z,63.65
2023-04-01T12:46:56.894Z,62.36
2023-04-01T12:47:56.899Z,62.20
2023-04-01T12:48:56.921Z,61.87
2023-04-01T12:49:56.853Z,65.10
2023-04-01T12:50:56.854Z,62.52
2023-04-01T12:51:56.868Z,65.26
2023-04-01T12:52:57.821Z,64.45
2023-04-01T12:53:56.869Z,64.45
2023-04-01T12:54:57.916Z,63.65
2023-04-01T12:55:56.790Z,61.71
2023-04-01T12:56:56.805Z,64.61
2023-04-01T12:57:56.766Z,65.58
2023-04-01T12:58:56.768Z,64.94